Airfield :
LOGIN :

Register | Disclaimer

   EN    FR    IT 

 










Legend :    VFR   Marginal VFR   IFR   Intensive IFR   Very Intensive IFR
Visi :
Ceiling :
>= 8 km
>= 3000ft
5 to 8 km
1000 to 3000 ft
1500m to 5 km
500 to 1000 ft
800 to 1500m
200 to 500 ft
< 800m
< 200 ft
Symbols :   Thunderstorms  Fog  Heavy snow  Heavy precipitations  Wind > 20 kt
SIGMETs :     Misc.  Thunderstorms  Icing  Turbulence  Mountain Waves  Volcanic Ashes







- Airport Elevation : 464 ft
- IATA code : EVX
- Download approach charts


LFOE - Evreux

CURRENT METAR :
  • 191030Z AUTO 19005KT 9999 BKN014 08/04 Q1023 BECMG BKN030

EXPIRED METARs :
  • 191000Z AUTO 19005KT 150V230 9999 OVC013 07/05 Q1023 BECMG BKN030
  • 190930Z AUTO 22004KT 190V250 9999 OVC012 07/04 Q1022 BECMG BKN030
  • 190900Z AUTO 22003KT 180V240 9999 OVC011 07/05 Q1022 NOSIG
  • 190830Z AUTO 22003KT 190V250 9999 OVC011 06/05 Q1022 NOSIG
  • 190800Z AUTO 19004KT 9999 BKN012 05/04 Q1022 NOSIG

TAF TAF LFOE
Valid from the 19 at 09:00 until the 20 at 09:00 UTC


190800Z 1909/2009 22005KT 9999 BKN014
BECMG 1911/1914 BKN030
PROB40
TEMPO 2001/2009 0400 FZFG VV///
No reported NOTAMs for that airfield.
1 SIGMET reported for the Paris FIR (LFFF) :
 
Severe turbulence
LFFF SIGMET 2 VALID 190800/191200 LFPW
LFFF PARIS FIR/UIR SEV TURB FCST WI N4715 E00130 - N4715 W00015 - N4800 W00015 - N4900 E00100 - N4830 E00230 - N4715 E00130 FL200/300 MOV E 10KT WKN=



MET'MAP, your aeronautical weather chart ! - Copyright ORBIFLY December 2007 - Disclaimer

ORBIFLY MET'MAP TEAM :

Programming & Development : Alexandra Zaïnal
Concept & Development : Baudouin d'Aumeries
Co-Development & Prog : Marc-Olivier Méhu
Technical & hardware support : Manuel Goepfert

Contact : metmap@orbifly.com




SOURCES & CREDITS :

   NOAA